sensor_id;sensor_type;location;lat;lon;timestamp;P1;durP1;ratioP1;P2;durP2;ratioP2
47161;SDS011;32921;53.256;8.198;2022-12-20T00:00:52;12.55;;;6.53;;
47161;SDS011;32921;53.256;8.198;2022-12-20T00:03:18;12.18;;;6.53;;
47161;SDS011;32921;53.256;8.198;2022-12-20T00:05:44;12.63;;;6.55;;
47161;SDS011;32921;53.256;8.198;2022-12-20T00:08:10;12.70;;;6.75;;
47161;SDS011;32921;53.256;8.198;2022-12-20T00:10:36;12.20;;;6.70;;
47161;SDS011;32921;53.256;8.198;2022-12-20T00:13:07;12.27;;;7.10;;
47161;SDS011;32921;53.256;8.198;2022-12-20T00:15:32;11.68;;;6.78;;
47161;SDS011;32921;53.256;8.198;2022-12-20T00:17:58;12.88;;;6.63;;
47161;SDS011;32921;53.256;8.198;2022-12-20T00:20:25;11.20;;;6.60;;
47161;SDS011;32921;53.256;8.198;2022-12-20T00:22:51;14.65;;;7.07;;
47161;SDS011;32921;53.256;8.198;2022-12-20T00:25:17;12.90;;;7.05;;
47161;SDS011;32921;53.256;8.198;2022-12-20T00:27:44;12.02;;;6.60;;
47161;SDS011;32921;53.256;8.198;2022-12-20T00:30:10;15.40;;;7.07;;
47161;SDS011;32921;53.256;8.198;2022-12-20T00:32:36;10.13;;;6.47;;
47161;SDS011;32921;53.256;8.198;2022-12-20T00:35:02;11.10;;;6.43;;
47161;SDS011;32921;53.256;8.198;2022-12-20T00:37:28;12.77;;;6.68;;
47161;SDS011;32921;53.256;8.198;2022-12-20T00:39:53;12.45;;;6.60;;
47161;SDS011;32921;53.256;8.198;2022-12-20T00:42:19;13.27;;;7.07;;
47161;SDS011;32921;53.256;8.198;2022-12-20T00:44:45;11.38;;;6.05;;
47161;SDS011;32921;53.256;8.198;2022-12-20T00:47:10;10.75;;;6.63;;
47161;SDS011;32921;53.256;8.198;2022-12-20T00:49:36;13.65;;;6.85;;
47161;SDS011;32921;53.256;8.198;2022-12-20T00:52:01;12.35;;;7.28;;
47161;SDS011;32921;53.256;8.198;2022-12-20T00:54:27;11.00;;;6.30;;
47161;SDS011;32921;53.256;8.198;2022-12-20T00:56:52;11.75;;;6.18;;
47161;SDS011;32921;53.256;8.198;2022-12-20T00:59:18;12.50;;;6.70;;
47161;SDS011;32921;53.256;8.198;2022-12-20T01:01:45;9.95;;;6.30;;
47161;SDS011;32921;53.256;8.198;2022-12-20T01:04:11;11.07;;;6.43;;
47161;SDS011;32921;53.256;8.198;2022-12-20T01:06:37;12.93;;;6.63;;
47161;SDS011;32921;53.256;8.198;2022-12-20T01:09:03;12.38;;;6.25;;
47161;SDS011;32921;53.256;8.198;2022-12-20T01:11:31;10.80;;;6.45;;
47161;SDS011;32921;53.256;8.198;2022-12-20T01:13:59;12.85;;;7.00;;
47161;SDS011;32921;53.256;8.198;2022-12-20T01:18:57;11.55;;;6.40;;
47161;SDS011;32921;53.256;8.198;2022-12-20T01:21:23;11.80;;;6.40;;
47161;SDS011;32921;53.256;8.198;2022-12-20T01:23:50;10.40;;;6.38;;
47161;SDS011;32921;53.256;8.198;2022-12-20T01:26:17;11.40;;;5.70;;
47161;SDS011;32921;53.256;8.198;2022-12-20T01:28:46;12.50;;;6.95;;
47161;SDS011;32921;53.256;8.198;2022-12-20T01:31:16;13.35;;;6.90;;
47161;SDS011;32921;53.256;8.198;2022-12-20T01:33:44;11.98;;;6.38;;
47161;SDS011;32921;53.256;8.198;2022-12-20T01:36:13;10.18;;;6.47;;
47161;SDS011;32921;53.256;8.198;2022-12-20T01:38:40;12.13;;;6.45;;
47161;SDS011;32921;53.256;8.198;2022-12-20T01:41:06;9.70;;;5.80;;
47161;SDS011;32921;53.256;8.198;2022-12-20T01:44:05;11.45;;;6.15;;
47161;SDS011;32921;53.256;8.198;2022-12-20T01:46:26;13.20;;;6.10;;
47161;SDS011;32921;53.256;8.198;2022-12-20T01:51:29;10.48;;;6.03;;
47161;SDS011;32921;53.256;8.198;2022-12-20T01:54:06;12.07;;;6.38;;
47161;SDS011;32921;53.256;8.198;2022-12-20T01:56:36;10.95;;;6.63;;
47161;SDS011;32921;53.256;8.198;2022-12-20T01:59:04;11.82;;;6.03;;
47161;SDS011;32921;53.256;8.198;2022-12-20T02:01:31;11.55;;;6.03;;
47161;SDS011;32921;53.256;8.198;2022-12-20T02:03:58;14.38;;;6.72;;
47161;SDS011;32921;53.256;8.198;2022-12-20T02:06:24;11.55;;;6.25;;
47161;SDS011;32921;53.256;8.198;2022-12-20T02:08:51;10.63;;;5.90;;
47161;SDS011;32921;53.256;8.198;2022-12-20T02:11:23;10.13;;;6.60;;
47161;SDS011;32921;53.256;8.198;2022-12-20T02:14:15;9.55;;;6.05;;
47161;SDS011;32921;53.256;8.198;2022-12-20T02:17:11;12.18;;;6.53;;
47161;SDS011;32921;53.256;8.198;2022-12-20T02:31:39;11.23;;;6.30;;
47161;SDS011;32921;53.256;8.198;2022-12-20T02:34:08;10.68;;;5.88;;
47161;SDS011;32921;53.256;8.198;2022-12-20T02:36:34;11.10;;;6.10;;
47161;SDS011;32921;53.256;8.198;2022-12-20T02:39:00;11.43;;;6.55;;
47161;SDS011;32921;53.256;8.198;2022-12-20T02:41:28;12.88;;;6.65;;
47161;SDS011;32921;53.256;8.198;2022-12-20T02:44:05;10.52;;;6.07;;
47161;SDS011;32921;53.256;8.198;2022-12-20T02:46:53;11.32;;;6.38;;
47161;SDS011;32921;53.256;8.198;2022-12-20T02:49:22;11.32;;;5.72;;
47161;SDS011;32921;53.256;8.198;2022-12-20T02:51:51;10.15;;;6.00;;
47161;SDS011;32921;53.256;8.198;2022-12-20T02:54:20;11.32;;;6.85;;
47161;SDS011;32921;53.256;8.198;2022-12-20T02:56:50;11.52;;;7.22;;
47161;SDS011;32921;53.256;8.198;2022-12-20T02:59:22;10.13;;;6.13;;
47161;SDS011;32921;53.256;8.198;2022-12-20T03:01:53;10.75;;;6.32;;
47161;SDS011;32921;53.256;8.198;2022-12-20T03:04:24;12.05;;;6.60;;
47161;SDS011;32921;53.256;8.198;2022-12-20T03:07:03;12.82;;;6.43;;
47161;SDS011;32921;53.256;8.198;2022-12-20T03:09:31;12.30;;;7.05;;
47161;SDS011;32921;53.256;8.198;2022-12-20T03:11:58;10.32;;;6.32;;
47161;SDS011;32921;53.256;8.198;2022-12-20T03:14:24;10.57;;;6.45;;
47161;SDS011;32921;53.256;8.198;2022-12-20T03:16:50;10.93;;;6.32;;
47161;SDS011;32921;53.256;8.198;2022-12-20T03:19:16;13.32;;;7.00;;
47161;SDS011;32921;53.256;8.198;2022-12-20T03:21:41;11.32;;;6.28;;
47161;SDS011;32921;53.256;8.198;2022-12-20T03:24:07;10.48;;;6.25;;
47161;SDS011;32921;53.256;8.198;2022-12-20T03:26:35;13.85;;;6.30;;
47161;SDS011;32921;53.256;8.198;2022-12-20T03:29:01;19.60;;;6.70;;
47161;SDS011;32921;53.256;8.198;2022-12-20T03:31:27;11.32;;;6.68;;
47161;SDS011;32921;53.256;8.198;2022-12-20T03:33:52;11.80;;;6.32;;
47161;SDS011;32921;53.256;8.198;2022-12-20T03:36:18;12.93;;;6.68;;
47161;SDS011;32921;53.256;8.198;2022-12-20T03:38:47;12.15;;;6.57;;
47161;SDS011;32921;53.256;8.198;2022-12-20T03:41:13;14.93;;;7.07;;
47161;SDS011;32921;53.256;8.198;2022-12-20T03:43:39;13.10;;;7.32;;
47161;SDS011;32921;53.256;8.198;2022-12-20T03:46:04;11.15;;;6.35;;
47161;SDS011;32921;53.256;8.198;2022-12-20T03:48:30;10.70;;;6.57;;
47161;SDS011;32921;53.256;8.198;2022-12-20T03:50:55;14.52;;;6.93;;
47161;SDS011;32921;53.256;8.198;2022-12-20T03:53:21;12.13;;;6.60;;
47161;SDS011;32921;53.256;8.198;2022-12-20T03:55:46;12.15;;;6.63;;
47161;SDS011;32921;53.256;8.198;2022-12-20T03:58:12;12.48;;;6.55;;
47161;SDS011;32921;53.256;8.198;2022-12-20T04:00:37;9.60;;;6.00;;
47161;SDS011;32921;53.256;8.198;2022-12-20T04:03:03;11.07;;;6.50;;
47161;SDS011;32921;53.256;8.198;2022-12-20T04:05:29;9.38;;;6.68;;
47161;SDS011;32921;53.256;8.198;2022-12-20T04:07:54;11.00;;;6.43;;
47161;SDS011;32921;53.256;8.198;2022-12-20T04:10:20;12.15;;;6.57;;
47161;SDS011;32921;53.256;8.198;2022-12-20T04:12:45;11.52;;;7.07;;
47161;SDS011;32921;53.256;8.198;2022-12-20T04:15:11;17.42;;;6.60;;
47161;SDS011;32921;53.256;8.198;2022-12-20T04:17:36;11.38;;;6.55;;
47161;SDS011;32921;53.256;8.198;2022-12-20T04:20:02;9.93;;;6.07;;
47161;SDS011;32921;53.256;8.198;2022-12-20T04:22:43;10.80;;;6.35;;
47161;SDS011;32921;53.256;8.198;2022-12-20T04:25:10;11.50;;;6.75;;
47161;SDS011;32921;53.256;8.198;2022-12-20T04:27:35;9.57;;;5.82;;
47161;SDS011;32921;53.256;8.198;2022-12-20T04:30:01;11.02;;;6.10;;
47161;SDS011;32921;53.256;8.198;2022-12-20T04:32:26;10.07;;;6.13;;
47161;SDS011;32921;53.256;8.198;2022-12-20T04:34:52;14.15;;;6.68;;
47161;SDS011;32921;53.256;8.198;2022-12-20T04:37:18;11.98;;;6.82;;
47161;SDS011;32921;53.256;8.198;2022-12-20T04:39:43;14.70;;;6.45;;
47161;SDS011;32921;53.256;8.198;2022-12-20T04:42:09;11.20;;;5.80;;
47161;SDS011;32921;53.256;8.198;2022-12-20T04:44:34;14.20;;;6.90;;
47161;SDS011;32921;53.256;8.198;2022-12-20T04:47:00;9.10;;;5.68;;
47161;SDS011;32921;53.256;8.198;2022-12-20T04:51:57;10.88;;;5.93;;
47161;SDS011;32921;53.256;8.198;2022-12-20T04:54:43;10.45;;;6.13;;
47161;SDS011;32921;53.256;8.198;2022-12-20T04:57:08;11.60;;;6.25;;
47161;SDS011;32921;53.256;8.198;2022-12-20T04:59:34;13.25;;;6.10;;
47161;SDS011;32921;53.256;8.198;2022-12-20T05:02:00;12.88;;;6.82;;
47161;SDS011;32921;53.256;8.198;2022-12-20T05:04:25;11.35;;;6.40;;
47161;SDS011;32921;53.256;8.198;2022-12-20T05:06:51;12.63;;;6.82;;
47161;SDS011;32921;53.256;8.198;2022-12-20T05:09:17;12.00;;;5.90;;
47161;SDS011;32921;53.256;8.198;2022-12-20T05:11:42;11.75;;;6.68;;
47161;SDS011;32921;53.256;8.198;2022-12-20T05:14:08;9.48;;;6.15;;
47161;SDS011;32921;53.256;8.198;2022-12-20T05:16:33;10.23;;;6.47;;
47161;SDS011;32921;53.256;8.198;2022-12-20T05:18:59;10.80;;;6.05;;
47161;SDS011;32921;53.256;8.198;2022-12-20T05:21:25;13.75;;;7.25;;
47161;SDS011;32921;53.256;8.198;2022-12-20T05:24:09;8.95;;;6.32;;
47161;SDS011;32921;53.256;8.198;2022-12-20T05:26:53;11.00;;;6.47;;
47161;SDS011;32921;53.256;8.198;2022-12-20T05:29:19;11.18;;;6.60;;
47161;SDS011;32921;53.256;8.198;2022-12-20T05:31:45;10.27;;;6.50;;
47161;SDS011;32921;53.256;8.198;2022-12-20T05:34:11;10.95;;;6.45;;
47161;SDS011;32921;53.256;8.198;2022-12-20T05:36:36;11.85;;;6.90;;
47161;SDS011;32921;53.256;8.198;2022-12-20T05:39:02;11.32;;;6.28;;
47161;SDS011;32921;53.256;8.198;2022-12-20T05:41:28;10.38;;;6.65;;
47161;SDS011;32921;53.256;8.198;2022-12-20T05:43:53;12.05;;;7.30;;
47161;SDS011;32921;53.256;8.198;2022-12-20T05:46:19;11.05;;;7.03;;
47161;SDS011;32921;53.256;8.198;2022-12-20T05:48:44;16.08;;;8.20;;
47161;SDS011;32921;53.256;8.198;2022-12-20T05:51:10;10.80;;;7.45;;
47161;SDS011;32921;53.256;8.198;2022-12-20T05:53:35;15.40;;;8.02;;
47161;SDS011;32921;53.256;8.198;2022-12-20T05:56:02;12.38;;;7.78;;
47161;SDS011;32921;53.256;8.198;2022-12-20T05:58:28;12.48;;;9.05;;
47161;SDS011;32921;53.256;8.198;2022-12-20T06:00:53;14.15;;;8.43;;
47161;SDS011;32921;53.256;8.198;2022-12-20T06:03:20;12.73;;;8.15;;
47161;SDS011;32921;53.256;8.198;2022-12-20T06:05:46;15.13;;;10.10;;
47161;SDS011;32921;53.256;8.198;2022-12-20T06:08:11;14.32;;;10.13;;
47161;SDS011;32921;53.256;8.198;2022-12-20T06:10:38;13.77;;;9.73;;
47161;SDS011;32921;53.256;8.198;2022-12-20T06:13:06;12.07;;;8.02;;
47161;SDS011;32921;53.256;8.198;2022-12-20T06:15:32;16.83;;;10.77;;
47161;SDS011;32921;53.256;8.198;2022-12-20T06:17:58;14.85;;;9.98;;
47161;SDS011;32921;53.256;8.198;2022-12-20T06:20:23;16.20;;;10.35;;
47161;SDS011;32921;53.256;8.198;2022-12-20T06:22:49;14.85;;;10.80;;
47161;SDS011;32921;53.256;8.198;2022-12-20T06:25:14;15.88;;;10.13;;
47161;SDS011;32921;53.256;8.198;2022-12-20T06:27:41;17.48;;;10.77;;
47161;SDS011;32921;53.256;8.198;2022-12-20T06:30:07;16.83;;;10.82;;
47161;SDS011;32921;53.256;8.198;2022-12-20T06:32:34;15.02;;;11.10;;
47161;SDS011;32921;53.256;8.198;2022-12-20T06:34:59;17.75;;;11.27;;
47161;SDS011;32921;53.256;8.198;2022-12-20T06:37:25;13.73;;;10.57;;
47161;SDS011;32921;53.256;8.198;2022-12-20T06:39:50;16.52;;;11.43;;
47161;SDS011;32921;53.256;8.198;2022-12-20T06:42:16;17.33;;;11.52;;
47161;SDS011;32921;53.256;8.198;2022-12-20T06:44:42;14.50;;;11.00;;
47161;SDS011;32921;53.256;8.198;2022-12-20T06:47:07;14.80;;;9.70;;
47161;SDS011;32921;53.256;8.198;2022-12-20T06:49:33;13.18;;;10.40;;
47161;SDS011;32921;53.256;8.198;2022-12-20T06:51:59;17.75;;;10.05;;
47161;SDS011;32921;53.256;8.198;2022-12-20T06:54:24;15.95;;;11.27;;
47161;SDS011;32921;53.256;8.198;2022-12-20T06:56:50;19.02;;;11.38;;
47161;SDS011;32921;53.256;8.198;2022-12-20T06:59:15;14.75;;;10.52;;
47161;SDS011;32921;53.256;8.198;2022-12-20T07:01:41;18.73;;;11.02;;
47161;SDS011;32921;53.256;8.198;2022-12-20T07:04:07;16.08;;;10.55;;
47161;SDS011;32921;53.256;8.198;2022-12-20T07:06:32;16.08;;;10.30;;
47161;SDS011;32921;53.256;8.198;2022-12-20T07:08:58;15.00;;;10.23;;
47161;SDS011;32921;53.256;8.198;2022-12-20T07:11:24;17.55;;;8.73;;
47161;SDS011;32921;53.256;8.198;2022-12-20T07:13:53;16.77;;;9.52;;
47161;SDS011;32921;53.256;8.198;2022-12-20T07:16:20;14.70;;;9.75;;
47161;SDS011;32921;53.256;8.198;2022-12-20T07:18:49;15.00;;;9.07;;
47161;SDS011;32921;53.256;8.198;2022-12-20T07:21:17;14.00;;;9.35;;
47161;SDS011;32921;53.256;8.198;2022-12-20T07:23:43;15.30;;;9.75;;
47161;SDS011;32921;53.256;8.198;2022-12-20T07:26:10;12.05;;;8.23;;
47161;SDS011;32921;53.256;8.198;2022-12-20T07:28:35;16.23;;;9.18;;
47161;SDS011;32921;53.256;8.198;2022-12-20T07:31:02;14.23;;;8.50;;
47161;SDS011;32921;53.256;8.198;2022-12-20T07:33:28;12.18;;;8.05;;
47161;SDS011;32921;53.256;8.198;2022-12-20T07:36:00;11.95;;;6.82;;
47161;SDS011;32921;53.256;8.198;2022-12-20T07:38:27;11.65;;;7.88;;
47161;SDS011;32921;53.256;8.198;2022-12-20T07:40:53;12.25;;;7.65;;
47161;SDS011;32921;53.256;8.198;2022-12-20T07:43:18;12.93;;;7.80;;
47161;SDS011;32921;53.256;8.198;2022-12-20T07:45:44;13.48;;;7.65;;
47161;SDS011;32921;53.256;8.198;2022-12-20T07:48:11;12.80;;;7.25;;
47161;SDS011;32921;53.256;8.198;2022-12-20T07:50:37;12.45;;;7.28;;
47161;SDS011;32921;53.256;8.198;2022-12-20T07:53:04;10.95;;;7.28;;
47161;SDS011;32921;53.256;8.198;2022-12-20T07:55:32;11.55;;;7.47;;
47161;SDS011;32921;53.256;8.198;2022-12-20T07:58:00;12.45;;;7.60;;
47161;SDS011;32921;53.256;8.198;2022-12-20T08:00:29;12.97;;;7.37;;
47161;SDS011;32921;53.256;8.198;2022-12-20T08:03:03;11.50;;;7.18;;
47161;SDS011;32921;53.256;8.198;2022-12-20T08:05:36;10.90;;;7.07;;
47161;SDS011;32921;53.256;8.198;2022-12-20T08:08:05;11.45;;;6.20;;
47161;SDS011;32921;53.256;8.198;2022-12-20T08:10:31;11.68;;;7.03;;
47161;SDS011;32921;53.256;8.198;2022-12-20T08:12:57;14.98;;;7.40;;
47161;SDS011;32921;53.256;8.198;2022-12-20T08:15:23;13.65;;;7.22;;
47161;SDS011;32921;53.256;8.198;2022-12-20T08:17:49;15.07;;;8.55;;
47161;SDS011;32921;53.256;8.198;2022-12-20T08:20:15;18.17;;;8.45;;
47161;SDS011;32921;53.256;8.198;2022-12-20T08:22:41;12.52;;;8.00;;
47161;SDS011;32921;53.256;8.198;2022-12-20T08:25:07;13.40;;;8.52;;
47161;SDS011;32921;53.256;8.198;2022-12-20T08:27:33;12.80;;;9.50;;
47161;SDS011;32921;53.256;8.198;2022-12-20T08:29:58;22.52;;;11.10;;
47161;SDS011;32921;53.256;8.198;2022-12-20T08:32:24;16.58;;;10.80;;
47161;SDS011;32921;53.256;8.198;2022-12-20T08:34:51;15.75;;;11.15;;
47161;SDS011;32921;53.256;8.198;2022-12-20T08:37:17;14.80;;;9.57;;
47161;SDS011;32921;53.256;8.198;2022-12-20T08:39:43;18.25;;;10.43;;
47161;SDS011;32921;53.256;8.198;2022-12-20T08:42:09;17.83;;;11.63;;
47161;SDS011;32921;53.256;8.198;2022-12-20T08:44:34;14.18;;;10.90;;
47161;SDS011;32921;53.256;8.198;2022-12-20T08:47:00;21.70;;;12.02;;
47161;SDS011;32921;53.256;8.198;2022-12-20T08:49:26;19.08;;;11.48;;
47161;SDS011;32921;53.256;8.198;2022-12-20T08:51:51;18.67;;;10.90;;
47161;SDS011;32921;53.256;8.198;2022-12-20T08:54:17;18.90;;;11.90;;
47161;SDS011;32921;53.256;8.198;2022-12-20T08:56:42;17.25;;;11.73;;
47161;SDS011;32921;53.256;8.198;2022-12-20T08:59:08;21.48;;;11.93;;
47161;SDS011;32921;53.256;8.198;2022-12-20T09:01:33;20.98;;;11.80;;
47161;SDS011;32921;53.256;8.198;2022-12-20T09:03:59;20.17;;;10.63;;
47161;SDS011;32921;53.256;8.198;2022-12-20T09:06:25;21.77;;;11.88;;
47161;SDS011;32921;53.256;8.198;2022-12-20T09:08:51;18.13;;;11.25;;
47161;SDS011;32921;53.256;8.198;2022-12-20T09:13:44;15.68;;;10.63;;
47161;SDS011;32921;53.256;8.198;2022-12-20T09:16:13;16.35;;;11.75;;
47161;SDS011;32921;53.256;8.198;2022-12-20T09:18:40;16.85;;;10.07;;
47161;SDS011;32921;53.256;8.198;2022-12-20T09:21:06;16.75;;;10.90;;
47161;SDS011;32921;53.256;8.198;2022-12-20T09:23:33;19.33;;;11.18;;
47161;SDS011;32921;53.256;8.198;2022-12-20T09:26:00;15.25;;;10.02;;
47161;SDS011;32921;53.256;8.198;2022-12-20T09:28:30;15.52;;;9.93;;
47161;SDS011;32921;53.256;8.198;2022-12-20T09:31:00;18.92;;;10.27;;
47161;SDS011;32921;53.256;8.198;2022-12-20T09:33:27;18.27;;;10.52;;
47161;SDS011;32921;53.256;8.198;2022-12-20T09:35:54;16.08;;;10.30;;
47161;SDS011;32921;53.256;8.198;2022-12-20T09:38:21;14.23;;;9.32;;
47161;SDS011;32921;53.256;8.198;2022-12-20T09:40:47;14.65;;;8.85;;
47161;SDS011;32921;53.256;8.198;2022-12-20T09:43:15;13.10;;;7.82;;
47161;SDS011;32921;53.256;8.198;2022-12-20T09:45:42;14.90;;;8.65;;
47161;SDS011;32921;53.256;8.198;2022-12-20T09:48:24;13.25;;;7.90;;
47161;SDS011;32921;53.256;8.198;2022-12-20T09:51:02;12.30;;;7.65;;
47161;SDS011;32921;53.256;8.198;2022-12-20T09:56:55;9.82;;;6.63;;
47161;SDS011;32921;53.256;8.198;2022-12-20T09:59:32;9.93;;;6.45;;
47161;SDS011;32921;53.256;8.198;2022-12-20T10:01:59;12.43;;;6.32;;
47161;SDS011;32921;53.256;8.198;2022-12-20T10:04:26;11.30;;;5.72;;
47161;SDS011;32921;53.256;8.198;2022-12-20T10:09:40;9.90;;;5.25;;
47161;SDS011;32921;53.256;8.198;2022-12-20T10:20:54;9.60;;;5.70;;
47161;SDS011;32921;53.256;8.198;2022-12-20T10:23:44;10.55;;;5.53;;
47161;SDS011;32921;53.256;8.198;2022-12-20T10:26:21;6.75;;;4.63;;
47161;SDS011;32921;53.256;8.198;2022-12-20T10:28:47;8.50;;;4.95;;
47161;SDS011;32921;53.256;8.198;2022-12-20T10:31:13;11.75;;;5.13;;
47161;SDS011;32921;53.256;8.198;2022-12-20T10:33:40;8.20;;;4.75;;
47161;SDS011;32921;53.256;8.198;2022-12-20T10:36:17;9.88;;;5.35;;
47161;SDS011;32921;53.256;8.198;2022-12-20T10:38:51;7.00;;;4.55;;
47161;SDS011;32921;53.256;8.198;2022-12-20T10:41:22;7.35;;;4.65;;
47161;SDS011;32921;53.256;8.198;2022-12-20T10:43:59;9.05;;;4.90;;
47161;SDS011;32921;53.256;8.198;2022-12-20T10:46:37;9.43;;;3.65;;
47161;SDS011;32921;53.256;8.198;2022-12-20T10:51:54;10.93;;;3.92;;
47161;SDS011;32921;53.256;8.198;2022-12-20T10:54:31;11.88;;;4.70;;
47161;SDS011;32921;53.256;8.198;2022-12-20T10:56:59;9.43;;;4.25;;
47161;SDS011;32921;53.256;8.198;2022-12-20T10:59:50;8.77;;;4.30;;
47161;SDS011;32921;53.256;8.198;2022-12-20T11:02:32;8.18;;;4.68;;
47161;SDS011;32921;53.256;8.198;2022-12-20T11:05:00;8.57;;;4.30;;
47161;SDS011;32921;53.256;8.198;2022-12-20T11:10:30;8.17;;;4.07;;
47161;SDS011;32921;53.256;8.198;2022-12-20T11:12:57;8.90;;;4.35;;
47161;SDS011;32921;53.256;8.198;2022-12-20T11:15:26;10.00;;;4.38;;
47161;SDS011;32921;53.256;8.198;2022-12-20T11:18:06;9.63;;;4.30;;
47161;SDS011;32921;53.256;8.198;2022-12-20T11:23:25;10.32;;;4.18;;
47161;SDS011;32921;53.256;8.198;2022-12-20T11:36:52;11.05;;;5.20;;
47161;SDS011;32921;53.256;8.198;2022-12-20T11:42:01;10.50;;;5.38;;
47161;SDS011;32921;53.256;8.198;2022-12-20T11:44:42;11.85;;;6.30;;
47161;SDS011;32921;53.256;8.198;2022-12-20T11:47:45;13.25;;;6.43;;
47161;SDS011;32921;53.256;8.198;2022-12-20T11:53:09;10.95;;;6.40;;
47161;SDS011;32921;53.256;8.198;2022-12-20T11:55:41;11.25;;;6.70;;
47161;SDS011;32921;53.256;8.198;2022-12-20T12:00:59;13.90;;;7.50;;
47161;SDS011;32921;53.256;8.198;2022-12-20T12:03:33;10.57;;;7.07;;
47161;SDS011;32921;53.256;8.198;2022-12-20T12:06:02;11.82;;;6.70;;
47161;SDS011;32921;53.256;8.198;2022-12-20T12:09:04;12.23;;;7.82;;
47161;SDS011;32921;53.256;8.198;2022-12-20T12:11:32;11.23;;;6.55;;
47161;SDS011;32921;53.256;8.198;2022-12-20T12:14:00;12.98;;;7.28;;
47161;SDS011;32921;53.256;8.198;2022-12-20T12:16:39;15.50;;;7.50;;
47161;SDS011;32921;53.256;8.198;2022-12-20T12:19:10;16.42;;;7.95;;
47161;SDS011;32921;53.256;8.198;2022-12-20T12:21:38;11.05;;;7.22;;
47161;SDS011;32921;53.256;8.198;2022-12-20T12:27:12;16.50;;;7.05;;
47161;SDS011;32921;53.256;8.198;2022-12-20T12:29:47;10.77;;;6.63;;
47161;SDS011;32921;53.256;8.198;2022-12-20T12:32:17;20.88;;;7.03;;
47161;SDS011;32921;53.256;8.198;2022-12-20T12:35:22;11.75;;;6.80;;
47161;SDS011;32921;53.256;8.198;2022-12-20T12:38:19;11.57;;;6.53;;
47161;SDS011;32921;53.256;8.198;2022-12-20T12:46:42;15.48;;;6.88;;
47161;SDS011;32921;53.256;8.198;2022-12-20T12:49:16;19.40;;;6.72;;
47161;SDS011;32921;53.256;8.198;2022-12-20T12:51:49;10.95;;;6.88;;
47161;SDS011;32921;53.256;8.198;2022-12-20T12:57:01;13.05;;;7.10;;
47161;SDS011;32921;53.256;8.198;2022-12-20T13:04:28;14.30;;;7.38;;
47161;SDS011;32921;53.256;8.198;2022-12-20T13:07:25;14.90;;;8.32;;
47161;SDS011;32921;53.256;8.198;2022-12-20T13:09:52;11.65;;;7.25;;
47161;SDS011;32921;53.256;8.198;2022-12-20T13:17:57;12.27;;;7.53;;
47161;SDS011;32921;53.256;8.198;2022-12-20T13:20:28;14.77;;;6.78;;
47161;SDS011;32921;53.256;8.198;2022-12-20T13:25:37;14.80;;;7.40;;
47161;SDS011;32921;53.256;8.198;2022-12-20T13:31:28;17.05;;;8.32;;
47161;SDS011;32921;53.256;8.198;2022-12-20T13:33:38;12.63;;;7.85;;
47161;SDS011;32921;53.256;8.198;2022-12-20T13:38:37;13.23;;;7.80;;
47161;SDS011;32921;53.256;8.198;2022-12-20T13:43:46;11.77;;;7.10;;
47161;SDS011;32921;53.256;8.198;2022-12-20T13:46:17;14.65;;;8.10;;
47161;SDS011;32921;53.256;8.198;2022-12-20T13:49:02;14.85;;;8.07;;
47161;SDS011;32921;53.256;8.198;2022-12-20T13:51:29;15.27;;;7.65;;
47161;SDS011;32921;53.256;8.198;2022-12-20T13:56:32;12.63;;;7.68;;
47161;SDS011;32921;53.256;8.198;2022-12-20T13:59:13;13.02;;;8.27;;
47161;SDS011;32921;53.256;8.198;2022-12-20T14:01:50;16.10;;;7.90;;
47161;SDS011;32921;53.256;8.198;2022-12-20T14:04:21;16.80;;;8.20;;
47161;SDS011;32921;53.256;8.198;2022-12-20T14:06:50;11.82;;;7.72;;
47161;SDS011;32921;53.256;8.198;2022-12-20T14:09:27;16.83;;;8.73;;
47161;SDS011;32921;53.256;8.198;2022-12-20T14:12:01;16.65;;;8.95;;
47161;SDS011;32921;53.256;8.198;2022-12-20T14:14:29;15.02;;;8.88;;
47161;SDS011;32921;53.256;8.198;2022-12-20T14:16:55;14.15;;;9.13;;
47161;SDS011;32921;53.256;8.198;2022-12-20T14:19:21;16.17;;;9.02;;
47161;SDS011;32921;53.256;8.198;2022-12-20T14:21:46;16.35;;;9.25;;
47161;SDS011;32921;53.256;8.198;2022-12-20T14:24:13;19.52;;;10.32;;
47161;SDS011;32921;53.256;8.198;2022-12-20T14:26:43;16.48;;;8.98;;
47161;SDS011;32921;53.256;8.198;2022-12-20T14:29:15;16.23;;;9.95;;
47161;SDS011;32921;53.256;8.198;2022-12-20T14:31:43;16.25;;;10.20;;
47161;SDS011;32921;53.256;8.198;2022-12-20T14:34:17;15.15;;;11.00;;
47161;SDS011;32921;53.256;8.198;2022-12-20T14:36:48;16.52;;;11.13;;
47161;SDS011;32921;53.256;8.198;2022-12-20T14:41:57;16.45;;;11.38;;
47161;SDS011;32921;53.256;8.198;2022-12-20T14:44:28;19.85;;;11.90;;
47161;SDS011;32921;53.256;8.198;2022-12-20T14:46:55;20.60;;;13.10;;
47161;SDS011;32921;53.256;8.198;2022-12-20T14:49:26;17.85;;;11.82;;
47161;SDS011;32921;53.256;8.198;2022-12-20T14:52:04;17.15;;;12.82;;
47161;SDS011;32921;53.256;8.198;2022-12-20T14:54:31;23.88;;;14.50;;
47161;SDS011;32921;53.256;8.198;2022-12-20T14:57:00;18.98;;;14.60;;
47161;SDS011;32921;53.256;8.198;2022-12-20T14:59:27;23.17;;;14.88;;
47161;SDS011;32921;53.256;8.198;2022-12-20T15:01:56;20.45;;;14.90;;
47161;SDS011;32921;53.256;8.198;2022-12-20T15:04:32;24.77;;;15.45;;
47161;SDS011;32921;53.256;8.198;2022-12-20T15:06:59;24.20;;;16.27;;
47161;SDS011;32921;53.256;8.198;2022-12-20T15:09:26;21.45;;;16.50;;
47161;SDS011;32921;53.256;8.198;2022-12-20T15:11:52;20.63;;;15.85;;
47161;SDS011;32921;53.256;8.198;2022-12-20T15:17:03;22.23;;;17.13;;
47161;SDS011;32921;53.256;8.198;2022-12-20T15:19:34;22.67;;;16.73;;
47161;SDS011;32921;53.256;8.198;2022-12-20T15:22:00;23.38;;;17.77;;
47161;SDS011;32921;53.256;8.198;2022-12-20T15:24:26;24.42;;;18.05;;
47161;SDS011;32921;53.256;8.198;2022-12-20T15:26:52;24.33;;;18.52;;
47161;SDS011;32921;53.256;8.198;2022-12-20T15:29:19;28.40;;;18.67;;
47161;SDS011;32921;53.256;8.198;2022-12-20T15:31:50;25.77;;;19.00;;
47161;SDS011;32921;53.256;8.198;2022-12-20T15:34:18;25.92;;;18.13;;
47161;SDS011;32921;53.256;8.198;2022-12-20T15:36:49;22.17;;;18.73;;
47161;SDS011;32921;53.256;8.198;2022-12-20T15:39:14;26.13;;;17.50;;
47161;SDS011;32921;53.256;8.198;2022-12-20T15:41:41;25.27;;;19.00;;
47161;SDS011;32921;53.256;8.198;2022-12-20T15:44:23;24.50;;;19.70;;
47161;SDS011;32921;53.256;8.198;2022-12-20T15:46:50;27.00;;;20.13;;
47161;SDS011;32921;53.256;8.198;2022-12-20T15:49:17;23.58;;;19.20;;
47161;SDS011;32921;53.256;8.198;2022-12-20T15:51:45;27.38;;;19.27;;
47161;SDS011;32921;53.256;8.198;2022-12-20T15:54:15;27.60;;;19.67;;
47161;SDS011;32921;53.256;8.198;2022-12-20T15:57:03;24.90;;;19.23;;
47161;SDS011;32921;53.256;8.198;2022-12-20T15:59:31;25.08;;;20.05;;
47161;SDS011;32921;53.256;8.198;2022-12-20T16:01:57;25.02;;;19.52;;
47161;SDS011;32921;53.256;8.198;2022-12-20T16:04:23;24.98;;;19.73;;
47161;SDS011;32921;53.256;8.198;2022-12-20T16:06:49;26.23;;;19.50;;
47161;SDS011;32921;53.256;8.198;2022-12-20T16:09:17;31.45;;;20.85;;
47161;SDS011;32921;53.256;8.198;2022-12-20T16:11:43;28.48;;;20.73;;
47161;SDS011;32921;53.256;8.198;2022-12-20T16:14:12;25.95;;;19.42;;
47161;SDS011;32921;53.256;8.198;2022-12-20T16:16:40;26.15;;;21.75;;
47161;SDS011;32921;53.256;8.198;2022-12-20T16:19:06;28.48;;;20.27;;
47161;SDS011;32921;53.256;8.198;2022-12-20T16:21:33;34.15;;;22.50;;
47161;SDS011;32921;53.256;8.198;2022-12-20T16:24:08;31.23;;;24.85;;
47161;SDS011;32921;53.256;8.198;2022-12-20T16:26:37;27.80;;;21.15;;